Chester, New Hampshire
Current Conditions -  °F | °C
As of 6:53 AM on Saturday 20 Dec 2014 (Local Time) from KMHT Reporting Station
Clear Clear  
Wind Chill: 14°   Ceiling: Unl
Heat Index: 22°   Visibility: 10mi
Dew Point: 17°   Wind: 6mph
Humidity: 82%   Direction: 350°N
Pressure: 30.25"   Gusts: NA
Location:  42.96°N, 71.26°W
Report Text: KMHT 201153Z 35005KT 10SM CLR M06/M08 A3025 RMK AO2 SLP265 T10561083 11033 21056 53021
Loading
Personal Weather Stations






























Interactive Weather Map New forecast layout! Learn more

10-Day Weather Forecast

Advertisements
Track Severe Weather on mobile